createdAt,value
2019-01-04T00:00:41.794Z,7.10
2019-01-04T00:01:47.003Z,8.18
2019-01-04T00:02:51.981Z,7.47
2019-01-04T00:03:56.911Z,7.40
2019-01-04T00:05:01.823Z,6.50
2019-01-04T00:06:06.943Z,7.20
2019-01-04T00:07:12.464Z,7.12
2019-01-04T00:08:17.709Z,7.83
2019-01-04T00:09:22.594Z,8.23
2019-01-04T00:10:27.476Z,8.15
2019-01-04T00:11:32.441Z,7.87
2019-01-04T00:12:37.334Z,8.58
2019-01-04T00:13:42.317Z,7.67
2019-01-04T00:14:48.014Z,7.92
2019-01-04T00:15:52.894Z,6.92
2019-01-04T00:16:58.178Z,8.15
2019-01-04T00:18:03.050Z,7.53
2019-01-04T00:19:08.038Z,7.08
2019-01-04T00:20:12.991Z,7.42
2019-01-04T00:21:18.025Z,8.43
2019-01-04T00:22:22.914Z,7.58
2019-01-04T00:23:27.954Z,8.10
2019-01-04T00:24:32.859Z,8.70
2019-01-04T00:25:38.119Z,7.17
2019-01-04T00:26:43.023Z,7.67
2019-01-04T00:27:48.561Z,9.08
2019-01-04T00:28:53.861Z,8.68
2019-01-04T00:29:59.072Z,7.80
2019-01-04T00:31:04.308Z,9.78
2019-01-04T00:32:09.272Z,8.43
2019-01-04T00:33:14.475Z,7.90
2019-01-04T00:34:19.428Z,8.98
2019-01-04T00:35:24.662Z,9.03
2019-01-04T00:36:29.670Z,9.10
2019-01-04T00:37:34.862Z,9.85
2019-01-04T00:38:40.799Z,7.42
2019-01-04T00:39:46.344Z,8.75
2019-01-04T00:40:51.634Z,9.95
2019-01-04T00:41:56.644Z,8.50
2019-01-04T00:43:01.592Z,9.43
2019-01-04T00:44:06.564Z,9.35
2019-01-04T00:45:11.775Z,8.80
2019-01-04T00:46:16.752Z,8.45
2019-01-04T00:47:21.774Z,8.58
2019-01-04T00:48:26.760Z,8.60
2019-01-04T00:49:31.685Z,8.63
2019-01-04T00:50:36.723Z,9.35
2019-01-04T00:51:41.804Z,8.78
2019-01-04T00:52:46.765Z,8.70
2019-01-04T00:53:51.794Z,9.10
2019-01-04T00:55:01.351Z,9.83
2019-01-04T00:56:47.234Z,8.23
2019-01-04T00:58:00.235Z,8.80
2019-01-04T00:59:39.159Z,8.10
2019-01-04T01:01:14.122Z,8.18
2019-01-04T01:02:54.759Z,9.15
2019-01-04T01:04:37.979Z,8.50
2019-01-04T01:06:41.865Z,8.03
2019-01-04T01:08:14.098Z,8.05
2019-01-04T01:10:30.060Z,9.25
2019-01-04T01:12:06.080Z,8.55
2019-01-04T01:13:47.869Z,8.53
2019-01-04T01:15:42.869Z,9.08
2019-01-04T01:17:02.321Z,8.93
2019-01-04T01:19:03.198Z,8.48
2019-01-04T01:20:37.513Z,8.40
2019-01-04T01:22:24.924Z,8.33
2019-01-04T01:24:06.608Z,8.80
2019-01-04T01:26:10.436Z,9.08
2019-01-04T01:27:55.224Z,9.10
2019-01-04T01:29:43.214Z,9.18
2019-01-04T01:31:35.422Z,8.83
2019-01-04T01:32:50.343Z,8.43
2019-01-04T01:34:31.998Z,9.13
2019-01-04T01:36:02.950Z,9.15
2019-01-04T01:37:53.136Z,8.90
2019-01-04T01:39:46.379Z,10.08
2019-01-04T01:41:20.437Z,9.15
2019-01-04T01:43:01.318Z,8.70
2019-01-04T01:44:39.143Z,9.20
2019-01-04T01:46:20.951Z,9.65
2019-01-04T01:47:43.523Z,9.40
2019-01-04T01:49:34.079Z,9.80
2019-01-04T01:51:17.233Z,9.83
2019-01-04T01:52:26.498Z,8.80
2019-01-04T01:53:44.761Z,11.00
2019-01-04T01:54:49.663Z,9.70
2019-01-04T01:55:54.618Z,9.95
2019-01-04T01:56:59.512Z,10.20
2019-01-04T01:58:04.425Z,10.50
2019-01-04T01:59:09.328Z,10.08
2019-01-04T02:00:14.765Z,10.10
2019-01-04T02:01:19.768Z,10.28
2019-01-04T02:02:24.921Z,10.28
2019-01-04T02:03:29.814Z,9.98
2019-01-04T02:04:34.703Z,11.15
2019-01-04T02:05:39.681Z,10.30
2019-01-04T02:06:44.569Z,11.33
2019-01-04T02:07:49.450Z,10.30
2019-01-04T02:08:54.362Z,9.88
2019-01-04T02:09:59.333Z,10.08
2019-01-04T02:11:04.292Z,10.03
2019-01-04T02:12:09.318Z,10.70
2019-01-04T02:13:14.207Z,10.75
2019-01-04T02:14:19.670Z,11.22
2019-01-04T02:15:24.551Z,10.95
2019-01-04T02:16:29.560Z,11.40
2019-01-04T02:17:34.531Z,10.68
2019-01-04T02:18:39.419Z,10.82
2019-01-04T02:19:44.402Z,10.38
2019-01-04T02:20:49.362Z,11.15
2019-01-04T02:21:54.492Z,10.40
2019-01-04T02:22:59.395Z,11.08
2019-01-04T02:24:04.282Z,11.43
2019-01-04T02:25:09.436Z,11.10
2019-01-04T02:26:14.419Z,10.93
2019-01-04T02:27:19.304Z,11.08
2019-01-04T02:28:24.434Z,10.82
2019-01-04T02:29:29.317Z,10.50
2019-01-04T02:30:34.232Z,11.40
2019-01-04T02:31:39.129Z,11.28
2019-01-04T02:32:44.318Z,10.50
2019-01-04T02:33:49.448Z,10.63
2019-01-04T02:34:54.354Z,10.68
2019-01-04T02:35:59.255Z,11.43
2019-01-04T02:37:04.223Z,11.73
2019-01-04T02:38:09.120Z,13.10
2019-01-04T02:39:14.010Z,11.38
2019-01-04T02:40:18.921Z,10.85
2019-01-04T02:41:24.073Z,11.90
2019-01-04T02:42:28.994Z,11.68
2019-01-04T02:43:34.969Z,11.53
2019-01-04T02:44:39.843Z,11.35
2019-01-04T02:45:44.737Z,10.95
2019-01-04T02:46:49.649Z,10.43
2019-01-04T02:47:54.798Z,10.70
2019-01-04T02:48:59.711Z,10.85
2019-01-04T02:50:05.230Z,11.08
2019-01-04T02:51:10.122Z,11.50
2019-01-04T02:52:15.038Z,12.20
2019-01-04T02:53:19.926Z,11.22
2019-01-04T02:54:24.813Z,11.12
2019-01-04T02:55:29.724Z,11.30
2019-01-04T02:56:34.632Z,11.00
2019-01-04T02:57:39.794Z,11.10
2019-01-04T02:58:44.689Z,11.95
2019-01-04T02:59:49.628Z,11.55
2019-01-04T03:00:54.840Z,10.50
2019-01-04T03:01:59.736Z,11.60
2019-01-04T03:03:05.036Z,10.90
2019-01-04T03:04:09.929Z,11.73
2019-01-04T03:05:14.903Z,11.97
2019-01-04T03:06:19.967Z,12.10
2019-01-04T03:07:24.862Z,11.28
2019-01-04T03:08:30.041Z,12.20
2019-01-04T03:09:34.924Z,11.63
2019-01-04T03:10:40.056Z,12.43
2019-01-04T03:11:44.940Z,12.80
2019-01-04T03:12:49.826Z,11.90
2019-01-04T03:13:54.994Z,12.23
2019-01-04T03:15:00.247Z,11.55
2019-01-04T03:16:05.213Z,11.88
2019-01-04T03:17:10.166Z,12.03
2019-01-04T03:18:15.060Z,12.53
2019-01-04T03:19:20.049Z,12.95
2019-01-04T03:20:24.942Z,12.85
2019-01-04T03:21:29.835Z,12.28
2019-01-04T03:22:34.727Z,12.40
2019-01-04T03:23:39.939Z,12.88
2019-01-04T03:24:45.114Z,12.00
2019-01-04T03:25:50.080Z,13.30
2019-01-04T03:26:55.255Z,13.13
2019-01-04T03:28:00.388Z,12.75
2019-01-04T03:29:05.523Z,13.35
2019-01-04T03:30:10.614Z,14.03
2019-01-04T03:31:15.486Z,12.63
2019-01-04T03:32:20.374Z,12.40
2019-01-04T03:33:25.509Z,12.70
2019-01-04T03:34:30.405Z,13.30
2019-01-04T03:35:35.325Z,14.15
2019-01-04T03:36:40.214Z,12.63
2019-01-04T03:37:45.125Z,13.43
2019-01-04T03:38:50.028Z,13.85
2019-01-04T03:39:54.992Z,13.93
2019-01-04T03:41:00.132Z,13.10
2019-01-04T03:42:05.107Z,13.95
2019-01-04T03:43:10.323Z,13.80
2019-01-04T03:44:15.223Z,13.93
2019-01-04T03:45:20.200Z,13.62
2019-01-04T03:46:25.988Z,13.60
2019-01-04T03:47:30.890Z,13.22
2019-01-04T03:48:35.788Z,14.03
2019-01-04T03:49:40.679Z,13.68
2019-01-04T03:50:45.576Z,12.65
2019-01-04T03:51:50.488Z,13.78
2019-01-04T03:52:55.399Z,12.98
2019-01-04T03:54:00.512Z,13.70
2019-01-04T03:55:05.648Z,13.62
2019-01-04T03:56:10.845Z,13.55
2019-01-04T03:57:15.776Z,14.30
2019-01-04T03:58:20.678Z,14.15
2019-01-04T03:59:25.567Z,13.13
2019-01-04T04:00:30.534Z,13.30
2019-01-04T04:01:35.415Z,12.82
2019-01-04T04:02:40.836Z,14.25
2019-01-04T04:03:45.725Z,13.60
2019-01-04T04:04:50.896Z,14.20
2019-01-04T04:05:55.893Z,12.30
2019-01-04T04:07:01.060Z,13.85
2019-01-04T04:08:06.049Z,13.85
2019-01-04T04:09:11.014Z,14.03
2019-01-04T04:10:15.893Z,13.95
2019-01-04T04:11:20.865Z,13.35
2019-01-04T04:12:25.768Z,14.23
2019-01-04T04:13:30.673Z,14.03
2019-01-04T04:14:35.582Z,14.10
2019-01-04T04:15:40.492Z,15.15
2019-01-04T04:16:45.411Z,14.85
2019-01-04T04:17:50.556Z,14.30
2019-01-04T04:18:55.461Z,14.40
2019-01-04T04:20:00.346Z,14.13
2019-01-04T04:21:05.242Z,14.43
2019-01-04T04:22:11.411Z,14.58
2019-01-04T04:23:16.304Z,14.25
2019-01-04T04:24:21.213Z,14.83
2019-01-04T04:25:26.124Z,14.93
2019-01-04T04:26:31.289Z,14.95
2019-01-04T04:27:36.450Z,15.15
2019-01-04T04:28:41.363Z,14.80
2019-01-04T04:29:46.510Z,14.65
2019-01-04T04:30:51.677Z,14.73
2019-01-04T04:31:56.818Z,13.90
2019-01-04T04:33:01.968Z,15.15
2019-01-04T04:34:06.877Z,14.07
2019-01-04T04:35:11.787Z,14.70
2019-01-04T04:36:16.702Z,14.70
2019-01-04T04:37:21.603Z,15.35
2019-01-04T04:38:26.496Z,14.18
2019-01-04T04:39:31.396Z,14.38
2019-01-04T04:40:36.301Z,15.28
2019-01-04T04:41:41.210Z,14.30
2019-01-04T04:42:46.111Z,15.05
2019-01-04T04:43:51.070Z,13.75
2019-01-04T04:44:56.210Z,14.75
2019-01-04T04:46:01.203Z,15.25
2019-01-04T04:47:06.090Z,13.05
2019-01-04T04:48:10.985Z,14.83
2019-01-04T04:49:15.978Z,14.58
2019-01-04T04:50:20.901Z,15.95
2019-01-04T04:51:25.800Z,15.55
2019-01-04T04:52:30.708Z,14.70
2019-01-04T04:53:36.025Z,14.70
2019-01-04T04:54:40.973Z,15.20
2019-01-04T04:55:45.887Z,14.28
2019-01-04T04:56:50.795Z,13.68
2019-01-04T04:57:55.686Z,15.40
2019-01-04T04:59:00.578Z,15.05
2019-01-04T05:00:06.251Z,16.50
2019-01-04T05:01:11.137Z,16.48
2019-01-04T05:02:16.044Z,14.25
2019-01-04T05:03:20.939Z,15.43
2019-01-04T05:04:25.918Z,14.78
2019-01-04T05:05:30.805Z,16.20
2019-01-04T05:06:35.711Z,16.30
2019-01-04T05:07:40.610Z,15.10
2019-01-04T05:08:45.494Z,14.53
2019-01-04T05:09:50.393Z,15.38
2019-01-04T05:10:55.324Z,16.32
2019-01-04T05:12:00.233Z,15.60
2019-01-04T05:13:05.144Z,15.45
2019-01-04T05:14:10.027Z,15.08
2019-01-04T05:15:14.930Z,15.25
2019-01-04T05:16:19.821Z,16.52
2019-01-04T05:17:24.719Z,15.30
2019-01-04T05:18:29.623Z,15.05
2019-01-04T05:19:34.525Z,16.30
2019-01-04T05:20:39.424Z,15.40
2019-01-04T05:21:44.312Z,15.30
2019-01-04T05:22:49.468Z,15.58
2019-01-04T05:23:54.629Z,15.40
2019-01-04T05:24:59.542Z,15.43
2019-01-04T05:26:04.443Z,15.65
2019-01-04T05:27:09.400Z,15.60
2019-01-04T05:28:14.366Z,15.25
2019-01-04T05:29:19.272Z,16.17
2019-01-04T05:30:24.411Z,15.43
2019-01-04T05:31:29.292Z,16.37
2019-01-04T05:32:34.181Z,15.05
2019-01-04T05:33:39.086Z,15.55
2019-01-04T05:34:44.238Z,16.15
2019-01-04T05:35:49.457Z,16.82
2019-01-04T05:36:54.346Z,15.10
2019-01-04T05:37:59.311Z,15.05
2019-01-04T05:39:05.605Z,16.25
2019-01-04T05:40:10.590Z,15.98
2019-01-04T05:41:15.480Z,15.78
2019-01-04T05:42:20.630Z,16.10
2019-01-04T05:43:25.547Z,15.60
2019-01-04T05:44:30.437Z,16.00
2019-01-04T05:45:35.423Z,16.15
2019-01-04T05:46:40.314Z,15.70
2019-01-04T05:47:45.718Z,16.10
2019-01-04T05:48:50.614Z,16.10
2019-01-04T05:49:55.813Z,16.25
2019-01-04T05:51:00.730Z,15.90
2019-01-04T05:52:11.061Z,17.45
2019-01-04T05:53:16.962Z,15.00
2019-01-04T05:54:21.848Z,15.72
2019-01-04T05:55:26.740Z,14.70
2019-01-04T05:56:31.894Z,16.73
2019-01-04T05:57:36.798Z,15.38
2019-01-04T05:58:41.682Z,17.55
2019-01-04T05:59:46.865Z,15.63
2019-01-04T06:00:51.763Z,16.50
2019-01-04T06:01:56.743Z,16.12
2019-01-04T06:03:01.634Z,16.87
2019-01-04T06:04:06.767Z,16.60
2019-01-04T06:05:11.668Z,17.45
2019-01-04T06:06:16.580Z,25.00
2019-01-04T06:07:21.725Z,19.50
2019-01-04T06:08:26.624Z,15.45
2019-01-04T06:09:31.528Z,15.75
2019-01-04T06:10:36.567Z,16.15
2019-01-04T06:11:41.455Z,16.40
2019-01-04T06:12:46.366Z,17.15
2019-01-04T06:13:51.278Z,16.35
2019-01-04T06:14:56.178Z,14.83
2019-01-04T06:16:01.369Z,15.30
2019-01-04T06:17:06.252Z,15.72
2019-01-04T06:18:11.175Z,16.00
2019-01-04T06:19:16.058Z,16.97
2019-01-04T06:20:20.960Z,16.15
2019-01-04T06:21:25.853Z,14.83
2019-01-04T06:22:30.745Z,15.10
2019-01-04T06:23:35.654Z,15.13
2019-01-04T06:24:40.860Z,14.50
2019-01-04T06:25:45.752Z,15.48
2019-01-04T06:26:50.639Z,15.55
2019-01-04T06:27:55.561Z,14.30
2019-01-04T06:29:00.474Z,14.58
2019-01-04T06:30:06.001Z,14.63
2019-01-04T06:31:10.932Z,17.32
2019-01-04T06:32:16.117Z,15.72
2019-01-04T06:33:21.256Z,14.28
2019-01-04T06:34:26.176Z,14.10
2019-01-04T06:35:31.133Z,14.83
2019-01-04T06:36:36.511Z,15.78
2019-01-04T06:37:41.395Z,13.68
2019-01-04T06:38:46.390Z,14.50
2019-01-04T06:39:51.295Z,15.80
2019-01-04T06:40:56.273Z,14.38
2019-01-04T06:42:01.156Z,15.50
2019-01-04T06:43:06.067Z,14.40
2019-01-04T06:44:10.948Z,14.40
2019-01-04T06:45:16.089Z,13.78
2019-01-04T06:46:20.981Z,14.13
2019-01-04T06:47:25.881Z,13.90
2019-01-04T06:48:30.801Z,13.32
2019-01-04T06:49:35.696Z,14.23
2019-01-04T06:50:40.869Z,14.20
2019-01-04T06:51:45.866Z,14.80
2019-01-04T06:52:50.762Z,14.30
2019-01-04T06:53:55.687Z,14.15
2019-01-04T06:55:50.300Z,13.80
2019-01-04T06:56:55.208Z,13.72
2019-01-04T06:58:00.181Z,14.28
2019-01-04T06:59:05.162Z,13.35
2019-01-04T07:00:10.225Z,14.58
2019-01-04T07:01:15.205Z,13.72
2019-01-04T07:02:20.332Z,13.93
2019-01-04T07:03:25.219Z,14.40
2019-01-04T07:04:30.150Z,13.43
2019-01-04T07:05:35.049Z,13.00
2019-01-04T07:06:39.948Z,12.80
2019-01-04T07:07:44.845Z,13.40
2019-01-04T07:08:49.986Z,13.35
2019-01-04T07:09:54.976Z,13.48
2019-01-04T07:10:59.864Z,13.83
2019-01-04T07:12:04.884Z,11.75
2019-01-04T07:13:09.851Z,12.82
2019-01-04T07:14:14.746Z,11.25
2019-01-04T07:15:19.946Z,13.22
2019-01-04T07:16:24.924Z,12.18
2019-01-04T07:17:30.098Z,11.40
2019-01-04T07:18:35.190Z,11.08
2019-01-04T07:19:40.128Z,11.85
2019-01-04T07:20:45.108Z,11.63
2019-01-04T07:21:50.008Z,10.82
2019-01-04T07:22:54.903Z,11.95
2019-01-04T07:23:59.804Z,11.93
2019-01-04T07:25:04.913Z,12.50
2019-01-04T07:26:09.805Z,12.25
2019-01-04T07:27:14.775Z,11.35
2019-01-04T07:28:19.903Z,11.40
2019-01-04T07:29:24.969Z,12.50
2019-01-04T07:30:29.942Z,11.90
2019-01-04T07:31:34.851Z,12.05
2019-01-04T07:32:39.989Z,13.25
2019-01-04T07:33:45.074Z,13.03
2019-01-04T07:34:49.960Z,13.28
2019-01-04T07:35:54.902Z,12.55
2019-01-04T07:37:00.149Z,12.37
2019-01-04T07:38:05.110Z,12.73
2019-01-04T07:39:10.022Z,13.58
2019-01-04T07:40:14.909Z,14.20
2019-01-04T07:41:19.798Z,13.78
2019-01-04T07:42:24.692Z,13.95
2019-01-04T07:43:29.833Z,13.03
2019-01-04T07:44:34.773Z,13.60
2019-01-04T07:45:40.031Z,14.95
2019-01-04T07:46:44.923Z,14.60
2019-01-04T07:47:50.173Z,14.78
2019-01-04T07:48:55.068Z,14.00
2019-01-04T07:50:00.967Z,14.90
2019-01-04T07:51:05.858Z,15.03
2019-01-04T07:52:10.753Z,13.98
2019-01-04T07:53:15.880Z,14.98
2019-01-04T07:54:21.028Z,14.85
2019-01-04T07:55:26.382Z,16.30
2019-01-04T07:56:31.273Z,15.40
2019-01-04T07:57:37.121Z,15.13
2019-01-04T07:58:42.260Z,14.53
2019-01-04T07:59:50.041Z,14.87
2019-01-04T08:00:54.945Z,17.02
2019-01-04T08:01:59.848Z,15.30
2019-01-04T08:03:18.746Z,14.23
2019-01-04T08:04:23.630Z,14.43
2019-01-04T08:05:29.300Z,14.63
2019-01-04T08:06:34.208Z,14.15
2019-01-04T08:07:39.115Z,14.35
2019-01-04T08:08:44.243Z,14.10
2019-01-04T08:09:49.150Z,14.73
2019-01-04T08:10:54.107Z,16.10
2019-01-04T08:11:59.019Z,14.78
2019-01-04T08:13:03.982Z,14.50
2019-01-04T08:14:08.865Z,12.78
2019-01-04T08:15:13.828Z,13.25
2019-01-04T08:16:18.760Z,14.05
2019-01-04T08:17:23.741Z,14.50
2019-01-04T08:18:28.628Z,15.23
2019-01-04T08:19:33.510Z,13.78
2019-01-04T08:20:38.410Z,13.10
2019-01-04T08:21:43.292Z,14.43
2019-01-04T08:22:48.516Z,15.72
2019-01-04T08:23:53.664Z,14.83
2019-01-04T08:24:58.575Z,14.60
2019-01-04T08:26:03.544Z,16.15
2019-01-04T08:27:08.429Z,15.90
2019-01-04T08:28:13.578Z,16.05
2019-01-04T08:29:18.481Z,15.50
2019-01-04T08:30:23.945Z,15.98
2019-01-04T08:31:28.838Z,15.10
2019-01-04T08:32:33.760Z,15.30
2019-01-04T08:33:38.802Z,16.57
2019-01-04T08:34:43.932Z,17.77
2019-01-04T08:35:48.848Z,15.83
2019-01-04T08:36:53.736Z,16.32
2019-01-04T08:37:58.639Z,16.90
2019-01-04T08:39:05.094Z,16.40
2019-01-04T08:40:11.505Z,15.55
2019-01-04T08:41:16.391Z,16.52
2019-01-04T08:42:21.529Z,15.20
2019-01-04T08:43:26.455Z,15.90
2019-01-04T08:44:31.363Z,16.75
2019-01-04T08:45:36.274Z,15.40
2019-01-04T08:46:41.144Z,16.70
2019-01-04T08:47:46.055Z,15.23
2019-01-04T08:48:51.208Z,16.23
2019-01-04T08:49:56.369Z,16.20
2019-01-04T08:51:01.342Z,15.48
2019-01-04T08:52:06.302Z,16.40
2019-01-04T08:53:11.281Z,16.48
2019-01-04T08:54:16.266Z,17.32
2019-01-04T08:55:26.522Z,17.90
2019-01-04T08:56:33.836Z,17.95
2019-01-04T08:57:38.746Z,17.35
2019-01-04T08:58:43.711Z,17.45
2019-01-04T08:59:49.599Z,18.85
2019-01-04T09:00:54.534Z,17.98
2019-01-04T09:01:59.463Z,18.15
2019-01-04T09:03:04.432Z,19.27
2019-01-04T09:04:09.402Z,18.32
2019-01-04T09:05:14.308Z,19.05
2019-01-04T09:06:19.496Z,18.65
2019-01-04T09:07:24.730Z,20.60
2019-01-04T09:08:29.630Z,18.27
2019-01-04T09:09:34.775Z,20.25
2019-01-04T09:10:39.767Z,18.85
2019-01-04T09:11:44.943Z,19.42
2019-01-04T09:12:49.915Z,19.48
2019-01-04T09:13:55.215Z,20.50
2019-01-04T09:15:00.170Z,20.65
2019-01-04T09:16:05.320Z,21.82
2019-01-04T09:17:10.308Z,20.32
2019-01-04T09:18:15.336Z,20.95
2019-01-04T09:19:20.611Z,20.72
2019-01-04T09:20:26.085Z,21.90
2019-01-04T09:21:31.032Z,21.15
2019-01-04T09:22:36.104Z,22.85
2019-01-04T09:23:41.071Z,26.10
2019-01-04T09:24:45.967Z,21.27
2019-01-04T09:25:51.164Z,21.70
2019-01-04T09:26:56.143Z,23.07
2019-01-04T09:28:01.043Z,21.70
2019-01-04T09:29:06.093Z,24.12
2019-01-04T09:30:13.204Z,21.52
2019-01-04T09:31:18.362Z,23.50
2019-01-04T09:32:23.278Z,22.65
2019-01-04T09:33:28.208Z,24.07
2019-01-04T09:34:33.112Z,22.27
2019-01-04T09:35:38.000Z,22.93
2019-01-04T09:36:43.196Z,23.87
2019-01-04T09:37:48.401Z,25.00
2019-01-04T09:38:53.507Z,23.75
2019-01-04T09:39:58.400Z,22.85
2019-01-04T09:41:28.226Z,23.87
2019-01-04T09:42:33.111Z,24.30
2019-01-04T09:43:38.036Z,24.77
2019-01-04T09:44:43.889Z,23.38
2019-01-04T09:45:48.779Z,23.30
2019-01-04T09:46:53.664Z,22.87
2019-01-04T09:47:58.551Z,22.50
2019-01-04T09:49:03.600Z,21.95
2019-01-04T09:50:09.695Z,24.35
2019-01-04T09:51:14.577Z,25.05
2019-01-04T09:52:19.685Z,23.15
2019-01-04T09:53:24.572Z,24.05
2019-01-04T09:54:29.709Z,24.63
2019-01-04T09:55:34.918Z,21.35
2019-01-04T09:56:39.877Z,22.27
2019-01-04T09:57:44.820Z,22.27
2019-01-04T09:58:49.953Z,23.05
2019-01-04T09:59:54.872Z,23.55
2019-01-04T10:00:59.968Z,21.85
2019-01-04T10:02:05.836Z,22.07
2019-01-04T10:03:10.728Z,21.68
2019-01-04T10:04:15.755Z,22.27
2019-01-04T10:05:20.967Z,22.85
2019-01-04T10:06:26.133Z,21.95
2019-01-04T10:07:31.023Z,21.30
2019-01-04T10:08:36.066Z,23.15
2019-01-04T10:09:41.720Z,22.52
2019-01-04T10:10:46.840Z,21.77
2019-01-04T10:11:51.743Z,21.55
2019-01-04T10:12:56.903Z,24.20
2019-01-04T10:14:01.887Z,22.80
2019-01-04T10:15:08.611Z,24.18
2019-01-04T10:16:13.495Z,22.40
2019-01-04T10:17:18.660Z,20.77
2019-01-04T10:18:23.614Z,21.07
2019-01-04T10:19:28.460Z,22.60
2019-01-04T10:20:33.353Z,21.80
2019-01-04T10:21:38.257Z,19.55
2019-01-04T10:22:43.155Z,19.70
2019-01-04T10:23:48.051Z,20.75
2019-01-04T10:24:53.275Z,21.27
2019-01-04T10:25:58.196Z,19.60
2019-01-04T10:27:03.168Z,20.25
2019-01-04T10:28:08.086Z,21.07
2019-01-04T10:29:13.247Z,18.40
2019-01-04T10:30:25.007Z,20.68
2019-01-04T10:31:29.888Z,20.30
2019-01-04T10:32:34.849Z,18.75
2019-01-04T10:33:39.756Z,19.35
2019-01-04T10:34:44.649Z,20.27
2019-01-04T10:35:49.571Z,20.37
2019-01-04T10:36:54.491Z,19.42
2019-01-04T10:37:59.386Z,18.87
2019-01-04T10:39:06.944Z,17.25
2019-01-04T10:40:12.099Z,17.48
2019-01-04T10:41:16.995Z,18.90
2019-01-04T10:42:21.908Z,18.23
2019-01-04T10:43:26.813Z,17.32
2019-01-04T10:44:31.991Z,17.42
2019-01-04T10:45:37.201Z,16.50
2019-01-04T10:46:42.220Z,16.82
2019-01-04T10:47:47.175Z,14.38
2019-01-04T10:48:52.495Z,16.05
2019-01-04T10:49:57.460Z,16.73
2019-01-04T10:51:02.372Z,16.80
2019-01-04T10:52:07.335Z,16.00
2019-01-04T10:53:12.235Z,15.55
2019-01-04T10:54:17.204Z,14.43
2019-01-04T10:55:22.271Z,15.35
2019-01-04T10:56:27.178Z,14.13
2019-01-04T10:57:32.380Z,14.13
2019-01-04T10:58:37.276Z,14.53
2019-01-04T10:59:42.168Z,14.18
2019-01-04T11:00:52.183Z,14.25
2019-01-04T11:01:57.833Z,13.58
2019-01-04T11:03:07.683Z,13.38
2019-01-04T11:04:13.649Z,13.95
2019-01-04T11:05:18.545Z,13.55
2019-01-04T11:06:23.527Z,11.73
2019-01-04T11:07:28.433Z,12.60
2019-01-04T11:08:33.411Z,12.20
2019-01-04T11:09:38.383Z,11.70
2019-01-04T11:10:43.360Z,12.07
2019-01-04T11:11:48.607Z,11.50
2019-01-04T11:12:53.504Z,11.73
2019-01-04T11:13:58.416Z,12.20
2019-01-04T11:15:03.442Z,10.58
2019-01-04T11:16:08.330Z,9.40
2019-01-04T11:17:13.286Z,10.40
2019-01-04T11:18:18.184Z,9.63
2019-01-04T11:19:23.063Z,9.33
2019-01-04T11:20:44.866Z,10.60
2019-01-04T11:21:49.837Z,8.50
2019-01-04T11:22:58.473Z,10.98
2019-01-04T11:24:53.786Z,9.53
2019-01-04T11:26:23.057Z,9.08
2019-01-04T11:27:37.296Z,7.58
2019-01-04T11:28:57.769Z,8.05
2019-01-04T11:30:27.962Z,8.23
2019-01-04T11:31:45.059Z,8.73
2019-01-04T11:33:09.999Z,8.03
2019-01-04T11:34:45.770Z,8.75
2019-01-04T11:36:23.731Z,8.10
2019-01-04T11:37:44.031Z,9.05
2019-01-04T11:39:13.844Z,9.30
2019-01-04T11:40:54.887Z,8.95
2019-01-04T11:42:41.804Z,9.35
2019-01-04T11:44:35.282Z,9.93
2019-01-04T11:46:05.448Z,6.85
2019-01-04T11:47:50.193Z,9.83
2019-01-04T11:49:10.250Z,9.33
2019-01-04T11:50:37.679Z,10.45
2019-01-04T11:52:03.823Z,9.88
2019-01-04T11:53:15.989Z,8.18
2019-01-04T11:54:27.409Z,9.93
2019-01-04T11:55:32.383Z,9.48
2019-01-04T11:56:37.535Z,9.50
2019-01-04T11:57:42.679Z,7.72
2019-01-04T11:58:47.814Z,8.83
2019-01-04T11:59:52.927Z,9.23
2019-01-04T12:00:58.138Z,9.78
2019-01-04T12:02:03.230Z,10.40
2019-01-04T12:03:08.360Z,10.15
2019-01-04T12:04:13.256Z,9.30
2019-01-04T12:05:18.231Z,9.73
2019-01-04T12:06:24.355Z,11.43
2019-01-04T12:07:29.328Z,10.50
2019-01-04T12:08:34.245Z,10.18
2019-01-04T12:09:39.123Z,11.05
2019-01-04T12:10:44.028Z,11.10
2019-01-04T12:11:48.959Z,11.22
2019-01-04T12:12:53.856Z,12.40
2019-01-04T12:13:59.833Z,10.65
2019-01-04T12:15:05.064Z,9.98
2019-01-04T12:16:09.989Z,10.32
2019-01-04T12:17:15.194Z,12.25
2019-01-04T12:18:20.156Z,11.28
2019-01-04T12:19:25.635Z,13.25
2019-01-04T12:20:30.534Z,13.30
2019-01-04T12:21:35.435Z,12.65
2019-01-04T12:22:40.580Z,14.05
2019-01-04T12:23:45.573Z,14.87
2019-01-04T12:24:50.548Z,13.48
2019-01-04T12:25:55.446Z,15.70
2019-01-04T12:27:00.414Z,14.80
2019-01-04T12:28:05.321Z,14.98
2019-01-04T12:29:10.747Z,14.60
2019-01-04T12:30:15.655Z,16.37
2019-01-04T12:31:20.629Z,15.88
2019-01-04T12:32:25.596Z,15.55
2019-01-04T12:33:30.889Z,16.55
2019-01-04T12:34:35.776Z,15.58
2019-01-04T12:35:40.683Z,16.32
2019-01-04T12:36:45.603Z,16.65
2019-01-04T12:37:50.514Z,17.67
2019-01-04T12:38:55.409Z,12.65
2019-01-04T12:40:00.593Z,16.87
2019-01-04T12:41:05.820Z,18.80
2019-01-04T12:42:10.794Z,18.10
2019-01-04T12:43:15.680Z,17.73
2019-01-04T12:44:20.569Z,18.15
2019-01-04T12:45:25.463Z,18.77
2019-01-04T12:46:30.439Z,18.02
2019-01-04T12:47:35.352Z,18.20
2019-01-04T12:48:40.279Z,19.35
2019-01-04T12:49:45.257Z,16.87
2019-01-04T12:50:50.156Z,21.35
2019-01-04T12:51:55.077Z,20.08
2019-01-04T12:53:00.038Z,19.70
2019-01-04T12:54:05.072Z,21.33
2019-01-04T12:55:10.378Z,21.80
2019-01-04T12:56:15.270Z,22.80
2019-01-04T12:57:20.202Z,22.87
2019-01-04T12:58:25.349Z,20.68
2019-01-04T12:59:30.235Z,23.40
2019-01-04T13:00:35.274Z,20.65
2019-01-04T13:01:40.255Z,22.55
2019-01-04T13:02:45.180Z,24.07
2019-01-04T13:03:50.093Z,23.07
2019-01-04T13:04:55.151Z,23.35
2019-01-04T13:06:00.039Z,21.07
2019-01-04T13:07:04.932Z,23.42
2019-01-04T13:08:10.001Z,22.95
2019-01-04T13:09:15.811Z,21.77
2019-01-04T13:10:20.707Z,25.25
2019-01-04T13:11:25.687Z,24.98
2019-01-04T13:12:30.892Z,23.20
2019-01-04T13:13:36.047Z,23.20
2019-01-04T13:14:41.007Z,24.80
2019-01-04T13:15:46.135Z,24.20
2019-01-04T13:16:51.034Z,25.60
2019-01-04T13:17:56.179Z,24.63
2019-01-04T13:19:01.107Z,24.35
2019-01-04T13:20:06.224Z,23.90
2019-01-04T13:21:11.120Z,24.72
2019-01-04T13:22:16.332Z,24.00
2019-01-04T13:23:21.229Z,26.02
2019-01-04T13:24:26.160Z,26.33
2019-01-04T13:25:31.309Z,26.95
2019-01-04T13:26:36.229Z,26.37
2019-01-04T13:27:41.120Z,25.12
2019-01-04T13:28:46.105Z,26.27
2019-01-04T13:29:51.003Z,26.07
2019-01-04T13:30:55.897Z,26.35
2019-01-04T13:32:00.819Z,23.90
2019-01-04T13:33:05.822Z,26.00
2019-01-04T13:34:11.112Z,25.30
2019-01-04T13:35:16.061Z,24.75
2019-01-04T13:36:20.948Z,25.88
2019-01-04T13:37:25.874Z,26.35
2019-01-04T13:38:30.896Z,25.68
2019-01-04T13:39:35.785Z,26.27
2019-01-04T13:40:40.772Z,27.90
2019-01-04T13:41:46.145Z,26.80
2019-01-04T13:42:51.138Z,27.73
2019-01-04T13:43:56.105Z,25.48
2019-01-04T13:45:01.091Z,26.80
2019-01-04T13:46:06.092Z,27.37
2019-01-04T13:47:10.983Z,24.70
2019-01-04T13:48:15.948Z,26.48
2019-01-04T13:49:20.846Z,26.12
2019-01-04T13:50:26.052Z,24.23
2019-01-04T13:51:30.961Z,26.23
2019-01-04T13:52:35.858Z,27.45
2019-01-04T13:53:40.743Z,26.77
2019-01-04T13:54:45.636Z,24.67
2019-01-04T13:55:50.833Z,27.73
2019-01-04T13:56:55.738Z,27.67
2019-01-04T13:58:00.668Z,26.27
2019-01-04T13:59:05.811Z,26.75
2019-01-04T14:00:11.091Z,25.43
2019-01-04T14:01:15.995Z,25.20
2019-01-04T14:02:20.904Z,26.42
2019-01-04T14:03:25.803Z,26.05
2019-01-04T14:04:30.697Z,26.30
2019-01-04T14:05:35.693Z,24.35
2019-01-04T14:06:40.581Z,25.60
2019-01-04T14:07:45.480Z,27.35
2019-01-04T14:08:50.621Z,27.95
2019-01-04T14:09:55.535Z,24.23
2019-01-04T14:11:00.682Z,26.25
2019-01-04T14:12:06.710Z,25.08
2019-01-04T14:13:13.257Z,26.73
2019-01-04T14:14:18.208Z,26.23
2019-01-04T14:15:23.242Z,24.92
2019-01-04T14:16:28.271Z,26.50
2019-01-04T14:17:33.173Z,24.40
2019-01-04T14:18:38.105Z,27.13
2019-01-04T14:19:43.043Z,23.55
2019-01-04T14:20:47.969Z,27.95
2019-01-04T14:21:52.883Z,24.32
2019-01-04T14:22:58.029Z,26.48
2019-01-04T14:24:03.009Z,26.95
2019-01-04T14:25:08.990Z,25.70
2019-01-04T14:26:13.952Z,23.42
2019-01-04T14:27:18.904Z,25.37
2019-01-04T14:28:23.807Z,24.75
2019-01-04T14:29:28.842Z,26.37
2019-01-04T14:30:34.556Z,26.90
2019-01-04T14:31:39.700Z,27.02
2019-01-04T14:32:44.665Z,25.75
2019-01-04T14:33:49.563Z,27.45